默认 日期 大小 文件数 浏览量 最新下载 xml
for it磁力链接相关资源由用户搜索指令自动获取,结果来源于网络,本站不存储任何资料,亦不承担任何责任,请于24小时内删除,搜索到4272个磁力,显示前4000条数据,用时25ms。
    {"WWW.YTS.AG.jpg": 105827, "Go.For.It.1983.1080p.BluRay.x264-[YTS.AG].mp4": 1744112779}
创建时间: 2018-11-23 08:24:26 大小:1.62 GB 文件数量:2 热度:13 最近下载:2025-10-09 01:23:02
    {"Day 1.rar": 583021252, "Day 2.rar": 52705861, "[CourseClub.NET].url": 123, "8. Olly Essentials.mp4": 85607050, "[DesireCourse.Com].url": 51, "6. Network Analysis.mp4": 65419957, "3. Malware Analysis Lab Setup.mp4": 25378192, "7. Analyzing Inner ...
创建时间: 2018-11-24 01:02:22 大小:1.05 GB 文件数量:13 热度:11 最近下载:2025-06-30 20:49:01
    {"In For It.jpg": 148844, "Mistress Tangent In For It.wmv": 1043861411, "Mistress Tangent In For It.wmv.jpg": 502090}
创建时间: 2018-11-24 01:38:09 大小:996.12 MB 文件数量:3 热度:8 最近下载:2023-04-19 01:20:02
    {"wankitnow.18.11.06.ashley.rider.hungry.for.it.part.2[N1C].mp4": 443615892}
创建时间: 2018-11-24 03:25:43 大小:423.07 MB 文件数量:1 热度:11 最近下载:2025-08-10 07:43:04
    {"fugli.nfo": 12175, "file_id.diz": 680, "50390001.jpg": 366086, "50390002.jpg": 290914, "50390003.jpg": 448095, "50390004.jpg": 458013, "50390005.jpg": 361495, "50390006.jpg": 226274, "50390007.jpg": 513093, "50390008.jpg": 429060, "50390009.jpg": 245242, ...
创建时间: 2018-11-24 20:52:10 大小:42.73 MB 文件数量:128 热度:12 最近下载:2024-03-23 08:18:01
    {"BabyGotBoobs - Sofi Ryan - Asking For It Anon.mp4": 248680002}
创建时间: 2018-11-25 07:18:11 大小:237.16 MB 文件数量:1 热度:13 最近下载:2025-04-13 15:33:01
    ... Spade - Bow Down And Beg For It.mp4": 908698689, "奔驰宝 ...
创建时间: 2018-11-25 09:33:22 大小:958.23 MB 文件数量:30 热度:15 最近下载:2025-04-03 07:03:02
    {"RARBG.txt": 30, "Killergram.18.05.26.Victoria.Summers.Shes.Game.For.It.XXX.SD.MP4-KLEENEX.mp4": 183969645}
创建时间: 2018-11-25 11:23:25 大小:175.45 MB 文件数量:2 热度:13 最近下载:2025-07-23 09:03:02
    {"www.alt-torrent.com.txt": 400, "POR FAVOR!.....COMPARTAN!.txt": 117, "Go for It (1983) FullHD LAT - ZeiZ.jpg": 47847, "Go for It (1983) FullHD LAT - ZeiZ.mkv": 6244293990}
创建时间: 2018-11-25 15:16:56 大小:5.82 GB 文件数量:4 热度:12 最近下载:2025-08-06 18:51:03
    ... ": 86, "House.Hunters.S161E10.Going.For.It.In.Gulfport.WEB.x264-CAFFEiNE ...
创建时间: 2018-11-25 16:16:16 大小:281.12 MB 文件数量:7 热度:10 最近下载:2023-04-19 11:00:03
    {"nfo.odt": 10725, "spr-630.wmv": 482319662, "Selection_619.jpg": 45955, "spr-630_preview.jpg": 242733, "Downloaded From torrentgalaxy.org.txt": 213}
创建时间: 2018-11-25 20:55:07 大小:460.26 MB 文件数量:5 热度:9 最近下载:2024-08-19 02:53:02
    {"cover.jpg": 14039, "03_joey_b_ellis_tunetta_hare_go_for_it_heart_and_fire_lp_version.mp3": 10050474, "02_joey_b_ellis_tunetta_hare_go_for_it_heart_and_fire_instrumental.mp3": 10102320, " ...
创建时间: 2018-11-26 03:05:48 大小:32.41 MB 文件数量:4 热度:10 最近下载:2025-06-14 12:41:01
    {"nubiles.18.04.19.julia.red.lust.for.it[N1C].mp4": 1033293089}
创建时间: 2018-11-27 05:56:31 大小:985.43 MB 文件数量:1 热度:22 最近下载:2025-02-12 17:57:01
    {"SaMple.avi": 6410904, "GOFORIT-ETRG.nfo": 8576, "ExtraTorrentRG.mp4": 1515390, "Go for It![2011]BRRip XviD-ETRG.avi": 732554358, "Torrent Seeded by Novalayer.com.txt": 167, "Torrent Downloaded From ExtraTorrent.com.txt": 353}
创建时间: 2018-11-27 09:23:36 大小:706.19 MB 文件数量:6 热度:11 最近下载:2023-04-20 01:20:03
    {"amateurcfnm.18.09.18.carmel.cox.beg.for.it[N1C].mp4": 1143370513}
创建时间: 2018-11-27 10:23:57 大小:1.06 GB 文件数量:1 热度:13 最近下载:2023-04-20 01:30:04
    ... , "HotChicksOnly Shy Asian Teen Goes For It In Private Casting|Akira ... , "HotChicksOnly Shy Asian Teen Goes For It In Private Casting|Akira ... , "HotChicksOnly Shy Asian Teen Goes For It In Private Casting|Akira ...
创建时间: 2018-11-27 22:34:55 大小:2.59 GB 文件数量:53 热度:287 最近下载:2025-09-25 21:59:02
    {"Taylor Swift - …Ready For It (BloodPop® Remix) (Single 2017)": {"Cover.jpg": 122823, "01 ...Ready For It (BloodPop® Remix).mp3": 8005095}}
创建时间: 2018-11-28 00:12:58 大小:7.75 MB 文件数量:2 热度:7 最近下载:2025-01-07 08:54:03
    {"RARBG.com.txt": 34, "p4u.15.12.30.alexa.red.get.redy.for.it.mp4": 932332176, "p4u.15.12.30.alexa.red.get.redy.for.it.nfo": 5204}
创建时间: 2018-11-28 07:12:21 大小:889.15 MB 文件数量:3 热度:34 最近下载:2025-10-06 22:42:03
    {"01.jpg": 559255, "02.jpg": 596711, "03.jpg": 314602, "04.jpg": 567091, "05.jpg": 581523, "06.jpg": 309603, "07.jpg": 553412, "08.jpg": 574950, "09.jpg": 597457, "10.jpg": 587826, "11.jpg": 597567, "12.jpg": 597476, "13.jpg": 592579, "14.jpg": 569544, "15 ...
创建时间: 2018-11-28 07:46:52 大小:10.18 MB 文件数量:20 热度:18 最近下载:2025-04-05 08:01:56
    {"RARBG.com.txt": 34, "girlsandstuds.13.01.27.darcy.tyler.begging.for.it-sexors.mp4": 1448635795}
创建时间: 2018-11-29 07:55:05 大小:1.35 GB 文件数量:2 热度:26 最近下载:2025-08-05 21:16:06